createdAt,value
2022-09-15T00:00:55.426Z,95219.00
2022-09-15T00:03:22.559Z,95222.16
2022-09-15T00:05:49.296Z,95072.75
2022-09-15T00:08:15.949Z,95304.25
2022-09-15T00:10:53.448Z,95312.94
2022-09-15T00:13:20.309Z,95294.66
2022-09-15T00:15:47.099Z,95330.00
2022-09-15T00:18:13.701Z,95271.97
2022-09-15T00:20:43.942Z,95348.63
2022-09-15T00:23:11.460Z,95324.94
2022-09-15T00:25:45.958Z,95361.41
2022-09-15T00:28:13.216Z,95320.66
2022-09-15T00:30:44.172Z,95344.09
2022-09-15T00:33:11.635Z,95288.81
2022-09-15T00:35:42.658Z,95291.00
2022-09-15T00:38:09.709Z,95310.56
2022-09-15T00:40:57.066Z,95382.41
2022-09-15T00:43:49.744Z,95379.56
2022-09-15T00:46:17.377Z,95349.19
2022-09-15T00:48:47.551Z,95267.41
2022-09-15T00:51:15.625Z,95358.47
2022-09-15T00:53:42.413Z,95377.66
2022-09-15T00:56:09.509Z,95354.91
2022-09-15T00:58:52.947Z,95317.78
2022-09-15T01:01:19.754Z,95096.94
2022-09-15T01:03:46.612Z,95267.75
2022-09-15T01:06:20.343Z,95355.03
2022-09-15T01:08:52.723Z,95250.53
2022-09-15T01:11:19.286Z,95320.22
2022-09-15T01:13:45.885Z,94958.84
2022-09-15T01:16:33.289Z,95351.50
2022-09-15T01:19:18.041Z,95347.69
2022-09-15T01:22:17.423Z,95348.31
2022-09-15T01:24:53.067Z,95351.69
2022-09-15T01:27:44.371Z,95357.94
2022-09-15T01:30:23.863Z,95319.72
2022-09-15T01:33:12.047Z,95361.50
2022-09-15T01:36:01.713Z,95358.88
2022-09-15T01:38:49.337Z,95319.47
2022-09-15T01:41:46.689Z,95344.38
2022-09-15T01:44:15.713Z,95289.25
2022-09-15T01:46:47.062Z,95348.53
2022-09-15T01:51:43.998Z,95230.22
2022-09-15T01:54:10.722Z,95304.09
2022-09-15T01:56:38.081Z,95333.72
2022-09-15T01:59:04.989Z,95321.84
2022-09-15T02:01:48.051Z,95370.31
2022-09-15T02:04:18.306Z,95308.53
2022-09-15T02:06:53.355Z,95351.97
2022-09-15T02:09:28.133Z,95211.72
2022-09-15T02:11:58.476Z,95363.47
2022-09-15T02:14:44.828Z,95240.91
2022-09-15T02:17:14.489Z,95358.31
2022-09-15T02:19:41.878Z,95315.84
2022-09-15T02:22:23.481Z,95357.28
2022-09-15T02:25:13.156Z,95326.56
2022-09-15T02:27:53.272Z,95265.97
2022-09-15T02:30:20.281Z,95278.31
2022-09-15T02:32:57.369Z,95272.84
2022-09-15T02:35:25.034Z,95297.13
2022-09-15T02:37:51.607Z,95311.06
2022-09-15T02:40:18.575Z,95252.78
2022-09-15T02:42:56.161Z,95298.28
2022-09-15T02:45:24.239Z,95295.78
2022-09-15T02:47:51.048Z,95328.97
2022-09-15T02:50:18.137Z,95355.91
2022-09-15T02:52:44.894Z,95302.03
2022-09-15T02:55:11.497Z,95312.22
2022-09-15T02:57:38.117Z,95279.94
2022-09-15T03:00:14.524Z,95243.88
2022-09-15T03:02:42.258Z,95315.31
2022-09-15T03:05:09.366Z,95100.81
2022-09-15T03:07:38.143Z,95325.38
2022-09-15T03:10:08.433Z,95265.06
2022-09-15T03:12:49.435Z,95246.59
2022-09-15T03:15:17.654Z,95236.78
2022-09-15T03:17:44.800Z,95253.13
2022-09-15T03:20:12.631Z,95244.41
2022-09-15T03:22:39.228Z,95296.66
2022-09-15T03:25:06.634Z,95270.28
2022-09-15T03:27:36.185Z,95237.66
2022-09-15T03:30:03.240Z,95320.50
2022-09-15T03:32:29.873Z,95265.94
2022-09-15T03:34:58.581Z,95314.66
2022-09-15T03:37:25.527Z,95287.06
2022-09-15T03:39:52.156Z,95276.44
2022-09-15T03:42:18.806Z,95287.63
2022-09-15T03:44:45.392Z,95279.19
2022-09-15T03:47:11.951Z,95268.03
2022-09-15T03:49:38.903Z,95277.16
2022-09-15T03:52:05.585Z,95228.69
2022-09-15T03:54:32.218Z,95257.06
2022-09-15T03:56:58.979Z,95170.53
2022-09-15T03:59:25.571Z,95081.81
2022-09-15T04:01:52.145Z,95306.13
2022-09-15T04:04:18.727Z,95145.00
2022-09-15T04:06:45.332Z,95275.56
2022-09-15T04:09:12.184Z,95208.28
2022-09-15T04:11:39.581Z,95247.63
2022-09-15T04:14:06.124Z,95256.31
2022-09-15T04:16:32.873Z,95298.53
2022-09-15T04:18:59.684Z,95264.53
2022-09-15T04:21:26.723Z,95068.31
2022-09-15T04:23:54.064Z,95259.06
2022-09-15T04:26:22.836Z,95256.44
2022-09-15T04:28:49.415Z,95247.75
2022-09-15T04:31:16.513Z,95258.34
2022-09-15T04:33:43.358Z,95246.81
2022-09-15T04:36:15.308Z,95224.22
2022-09-15T04:38:42.566Z,95186.13
2022-09-15T04:41:09.563Z,95298.09
2022-09-15T04:43:36.301Z,95274.97
2022-09-15T04:46:02.916Z,95228.81
2022-09-15T04:48:30.512Z,95269.13
2022-09-15T04:51:01.875Z,95227.50
2022-09-15T04:53:28.683Z,95230.69
2022-09-15T04:56:04.873Z,95253.19
2022-09-15T04:58:32.014Z,95255.31
2022-09-15T05:00:59.075Z,95236.28
2022-09-15T05:03:25.740Z,95096.53
2022-09-15T05:05:52.371Z,95317.66
2022-09-15T05:08:19.553Z,95271.31
2022-09-15T05:10:46.140Z,95305.09
2022-09-15T05:13:12.809Z,95319.59
2022-09-15T05:15:39.825Z,95257.63
2022-09-15T05:18:06.666Z,95233.81
2022-09-15T05:20:33.268Z,95288.59
2022-09-15T05:22:59.849Z,95239.88
2022-09-15T05:25:26.468Z,95286.75
2022-09-15T05:27:53.187Z,95287.56
2022-09-15T05:33:06.488Z,95334.09
2022-09-15T05:35:33.061Z,95322.22
2022-09-15T05:37:59.797Z,95275.66
2022-09-15T05:40:26.859Z,95267.25
2022-09-15T05:42:53.438Z,95338.22
2022-09-15T05:45:19.996Z,95336.81
2022-09-15T05:47:46.624Z,95274.06
2022-09-15T05:50:14.746Z,95294.28
2022-09-15T05:52:41.315Z,95313.88
2022-09-15T05:55:08.378Z,95328.81
2022-09-15T05:57:34.958Z,95244.75
2022-09-15T06:00:01.903Z,95206.34
2022-09-15T06:02:28.600Z,95318.44
2022-09-15T06:04:55.371Z,95341.69
2022-09-15T06:07:21.933Z,95286.63
2022-09-15T06:09:48.750Z,95139.84
2022-09-15T06:12:17.769Z,95348.78
2022-09-15T06:14:45.904Z,95332.72
2022-09-15T06:17:12.603Z,95303.50
2022-09-15T06:19:39.170Z,95340.91
2022-09-15T06:22:05.915Z,95345.25
2022-09-15T06:24:32.491Z,95362.00
2022-09-15T06:26:59.084Z,95267.88
2022-09-15T06:29:25.654Z,95335.88
2022-09-15T06:31:52.343Z,95378.63
2022-09-15T06:34:18.944Z,95380.72
2022-09-15T06:36:45.614Z,95359.47
2022-09-15T06:39:12.243Z,95360.59
2022-09-15T06:42:00.845Z,95363.78
2022-09-15T06:44:25.433Z,95366.75
2022-09-15T06:46:52.021Z,95259.81
2022-09-15T06:49:19.181Z,95390.69
2022-09-15T06:51:45.785Z,95378.34
2022-09-15T06:54:12.725Z,95409.53
2022-09-15T06:56:39.313Z,95363.44
2022-09-15T06:59:05.943Z,95371.03
2022-09-15T07:01:32.734Z,95412.81
2022-09-15T07:04:00.983Z,95379.03
2022-09-15T07:06:28.626Z,95385.06
2022-09-15T07:08:55.197Z,95371.91
2022-09-15T07:11:21.805Z,95291.13
2022-09-15T07:13:49.190Z,95342.84
2022-09-15T07:16:16.099Z,95382.88
2022-09-15T07:18:43.694Z,95472.00
2022-09-15T07:21:15.263Z,95425.06
2022-09-15T07:23:42.011Z,95210.81
2022-09-15T07:26:17.161Z,95346.03
2022-09-15T07:28:45.206Z,95452.63
2022-09-15T07:31:13.428Z,95190.09
2022-09-15T07:33:47.098Z,95462.63
2022-09-15T07:36:13.861Z,95442.78
2022-09-15T07:38:42.428Z,95390.78
2022-09-15T07:41:13.948Z,95380.97
2022-09-15T07:43:40.757Z,95461.28
2022-09-15T07:46:08.430Z,95427.13
2022-09-15T07:48:35.108Z,95406.81
2022-09-15T07:51:01.994Z,95447.66
2022-09-15T07:53:29.466Z,95496.66
2022-09-15T07:55:56.227Z,95436.47
2022-09-15T07:58:23.026Z,95460.09
2022-09-15T08:00:49.726Z,95452.25
2022-09-15T08:03:16.431Z,95426.66
2022-09-15T08:05:45.584Z,95463.53
2022-09-15T08:08:12.548Z,95498.47
2022-09-15T08:10:40.285Z,95462.59
2022-09-15T08:13:06.898Z,95333.50
2022-09-15T08:15:36.366Z,95483.03
2022-09-15T08:18:03.737Z,95473.16
2022-09-15T08:20:31.522Z,95464.94
2022-09-15T08:22:58.635Z,95381.09
2022-09-15T08:25:25.238Z,95496.03
2022-09-15T08:27:53.983Z,95305.75
2022-09-15T08:30:21.352Z,95506.56
2022-09-15T08:32:48.492Z,95465.44
2022-09-15T08:35:15.998Z,95457.44
2022-09-15T08:37:42.578Z,95461.44
2022-09-15T08:40:21.386Z,95498.66
2022-09-15T08:42:48.723Z,95536.78
2022-09-15T08:45:43.056Z,95424.69
2022-09-15T08:48:10.442Z,95531.19
2022-09-15T08:50:40.264Z,95274.91
2022-09-15T08:53:19.101Z,95469.97
2022-09-15T08:55:50.468Z,95469.44
2022-09-15T08:58:21.816Z,95410.81
2022-09-15T09:00:51.800Z,95445.03
2022-09-15T09:03:37.461Z,95512.22
2022-09-15T09:06:19.084Z,95519.09
2022-09-15T09:09:01.359Z,95518.41
2022-09-15T09:11:30.751Z,95519.00
2022-09-15T09:14:17.481Z,95521.97
2022-09-15T09:16:56.158Z,95518.34
2022-09-15T09:19:47.874Z,95517.50
2022-09-15T09:22:16.570Z,95376.28
2022-09-15T09:24:53.760Z,95457.34
2022-09-15T09:27:22.426Z,95498.44
2022-09-15T09:29:50.640Z,95304.81
2022-09-15T09:32:25.596Z,95435.66
2022-09-15T09:35:13.992Z,95444.88
2022-09-15T09:37:40.572Z,95446.81
2022-09-15T09:40:07.941Z,95444.88
2022-09-15T09:42:37.193Z,95439.09
2022-09-15T09:45:05.168Z,95475.38
2022-09-15T09:47:31.727Z,95416.13
2022-09-15T09:49:59.456Z,95438.97
2022-09-15T09:52:36.622Z,95436.22
2022-09-15T09:55:20.210Z,95422.13
2022-09-15T09:57:48.975Z,95403.28
2022-09-15T10:00:36.535Z,95413.22
2022-09-15T10:03:19.794Z,95429.66
2022-09-15T10:06:00.238Z,95371.91
2022-09-15T10:08:26.887Z,95397.16
2022-09-15T10:10:54.226Z,95469.28
2022-09-15T10:13:21.326Z,95423.63
2022-09-15T10:15:58.082Z,95417.94
2022-09-15T10:18:30.836Z,95386.91
2022-09-15T10:20:57.501Z,95371.28
2022-09-15T10:23:25.993Z,95424.56
2022-09-15T10:26:00.580Z,95458.94
2022-09-15T10:28:27.341Z,95448.88
2022-09-15T10:31:06.942Z,95386.78
2022-09-15T10:33:37.080Z,95442.69
2022-09-15T10:36:18.148Z,95400.28
2022-09-15T10:38:56.746Z,95445.88
2022-09-15T10:41:25.008Z,95368.19
2022-09-15T10:44:17.818Z,95428.91
2022-09-15T10:47:10.217Z,95430.28
2022-09-15T10:49:49.922Z,95350.09
2022-09-15T10:52:25.352Z,95422.56
2022-09-15T10:54:51.837Z,95421.53
2022-09-15T10:57:48.988Z,95334.72
2022-09-15T11:00:23.408Z,95366.75
2022-09-15T11:03:11.392Z,95411.81
2022-09-15T11:06:05.990Z,95409.19
2022-09-15T11:08:53.352Z,95402.94
2022-09-15T11:11:44.517Z,95367.44
2022-09-15T11:14:17.409Z,95408.41
2022-09-15T11:17:00.564Z,95385.13
2022-09-15T11:19:53.335Z,95397.00
2022-09-15T11:22:41.212Z,95349.63
2022-09-15T11:25:22.520Z,95362.97
2022-09-15T11:27:54.050Z,95378.19
2022-09-15T11:30:22.435Z,95234.06
2022-09-15T11:33:15.375Z,95376.13
2022-09-15T11:35:48.072Z,95377.94
2022-09-15T11:38:53.059Z,95375.81
2022-09-15T11:41:22.695Z,95311.22
2022-09-15T11:44:06.427Z,95301.44
2022-09-15T11:46:43.140Z,95377.81
2022-09-15T11:49:17.500Z,95360.13
2022-09-15T11:51:50.690Z,95267.53
2022-09-15T11:54:31.588Z,95360.03
2022-09-15T11:56:58.420Z,95315.88
2022-09-15T11:59:46.806Z,95380.88
2022-09-15T12:02:25.538Z,95377.91
2022-09-15T12:05:15.032Z,95372.66
2022-09-15T12:08:05.619Z,95318.03
2022-09-15T12:10:36.781Z,95335.91
2022-09-15T12:13:03.378Z,95305.81
2022-09-15T12:15:29.935Z,95329.09
2022-09-15T12:18:37.155Z,95328.03
2022-09-15T12:21:23.756Z,95360.44
2022-09-15T12:24:16.916Z,95348.78
2022-09-15T12:26:46.419Z,95351.63
2022-09-15T12:29:22.064Z,95344.69
2022-09-15T12:31:48.616Z,95297.97
2022-09-15T12:34:38.404Z,95346.66
2022-09-15T12:37:14.694Z,95259.34
2022-09-15T12:39:43.184Z,95300.34
2022-09-15T12:42:21.505Z,95210.47
2022-09-15T12:44:50.200Z,95227.72
2022-09-15T12:47:18.020Z,95117.38
2022-09-15T12:49:46.196Z,95271.66
2022-09-15T12:52:12.799Z,95286.00
2022-09-15T12:54:41.294Z,95148.06
2022-09-15T12:57:08.126Z,95296.50
2022-09-15T12:59:34.778Z,95241.56
2022-09-15T13:02:02.604Z,95255.81
2022-09-15T13:04:55.717Z,95287.81
2022-09-15T13:07:22.921Z,95243.88
2022-09-15T13:10:08.255Z,95312.91
2022-09-15T13:12:36.602Z,95267.06
2022-09-15T13:15:04.405Z,95287.47
2022-09-15T13:17:34.181Z,95258.19
2022-09-15T13:20:02.245Z,95149.66
2022-09-15T13:22:31.366Z,95274.28
2022-09-15T13:25:01.828Z,95198.13
2022-09-15T13:27:36.423Z,95268.94
2022-09-15T13:30:26.082Z,95270.41
2022-09-15T13:39:21.271Z,95293.66
2022-09-15T13:42:07.064Z,95304.56
2022-09-15T13:45:04.487Z,95340.06
2022-09-15T13:47:41.443Z,95284.16
2022-09-15T13:50:32.457Z,95337.47
2022-09-15T13:53:30.682Z,95274.34
2022-09-15T13:56:08.978Z,95257.44
2022-09-15T14:01:22.604Z,95310.16
2022-09-15T14:03:57.888Z,95278.66
2022-09-15T14:06:25.005Z,95343.81
2022-09-15T14:08:54.088Z,95282.16
2022-09-15T14:11:26.885Z,95322.84
2022-09-15T14:13:53.570Z,95315.00
2022-09-15T14:16:36.121Z,95335.69
2022-09-15T14:19:34.555Z,95336.47
2022-09-15T14:22:02.550Z,95248.84
2022-09-15T14:24:30.644Z,95328.41
2022-09-15T14:27:03.502Z,95310.03
2022-09-15T14:29:30.981Z,95299.81
2022-09-15T14:32:00.326Z,95259.41
2022-09-15T14:34:27.470Z,95240.50
2022-09-15T14:37:03.402Z,95201.09
2022-09-15T14:39:30.110Z,95249.81
2022-09-15T14:41:56.762Z,95209.66
2022-09-15T14:47:26.418Z,95251.94
2022-09-15T14:50:29.028Z,95309.94
2022-09-15T14:53:07.410Z,95237.84
2022-09-15T14:55:38.054Z,95253.28
2022-09-15T14:58:16.511Z,95188.16
2022-09-15T15:01:01.596Z,95264.41
2022-09-15T15:03:58.506Z,95361.41
2022-09-15T15:06:52.234Z,95375.72
2022-09-15T15:09:32.458Z,95315.16
2022-09-15T15:12:24.606Z,95309.78
2022-09-15T15:14:52.788Z,95122.34
2022-09-15T15:17:38.534Z,95262.06
2022-09-15T15:20:08.062Z,95361.94
2022-09-15T15:22:34.840Z,95360.34
2022-09-15T15:25:01.424Z,95107.25
2022-09-15T15:27:34.202Z,95356.03
2022-09-15T15:30:23.915Z,95352.56
2022-09-15T15:32:50.983Z,95307.16
2022-09-15T15:35:17.912Z,95353.69
2022-09-15T15:37:44.494Z,95233.53
2022-09-15T15:40:17.335Z,95297.34
2022-09-15T15:42:57.751Z,95376.38
2022-09-15T15:45:27.930Z,95238.03
2022-09-15T15:47:54.777Z,95359.09
2022-09-15T15:50:26.218Z,95267.31
2022-09-15T15:52:52.929Z,95309.31
2022-09-15T15:55:24.123Z,95388.75
2022-09-15T15:57:52.485Z,95214.34
2022-09-15T16:00:30.528Z,95339.91
2022-09-15T16:02:57.327Z,95339.59
2022-09-15T16:05:27.517Z,95356.97
2022-09-15T16:07:54.247Z,95383.66
2022-09-15T16:10:23.427Z,95380.16
2022-09-15T16:12:50.514Z,95351.09
2022-09-15T16:15:18.897Z,95376.53
2022-09-15T16:17:46.873Z,95363.59
2022-09-15T16:20:15.921Z,95435.84
2022-09-15T16:22:43.385Z,95338.81
2022-09-15T16:25:18.405Z,95338.66
2022-09-15T16:27:45.012Z,95366.56
2022-09-15T16:30:14.336Z,95427.81
2022-09-15T16:32:41.350Z,95387.19
2022-09-15T16:35:49.637Z,95378.75
2022-09-15T16:38:16.219Z,95350.19
2022-09-15T16:40:42.882Z,95403.00
2022-09-15T16:43:10.516Z,95380.19
2022-09-15T16:45:40.589Z,95348.78
2022-09-15T16:48:08.174Z,95425.47
2022-09-15T16:50:35.143Z,95372.91
2022-09-15T16:53:01.761Z,95316.94
2022-09-15T16:55:47.183Z,95446.56
2022-09-15T16:58:14.272Z,95385.31
2022-09-15T17:00:42.568Z,95371.41
2022-09-15T17:03:09.219Z,95392.00
2022-09-15T17:05:36.966Z,95307.63
2022-09-15T17:08:04.668Z,95387.25
2022-09-15T17:10:31.567Z,95313.72
2022-09-15T17:12:58.262Z,95222.47
2022-09-15T17:15:28.565Z,95278.72
2022-09-15T17:17:56.155Z,95456.44
2022-09-15T17:20:23.465Z,95471.66
2022-09-15T17:22:50.120Z,95372.22
2022-09-15T17:25:39.985Z,95374.38
2022-09-15T17:28:06.550Z,95340.19
2022-09-15T17:30:33.146Z,95351.63
2022-09-15T17:33:02.751Z,95477.31
2022-09-15T17:35:32.164Z,95439.28
2022-09-15T17:37:58.732Z,95450.34
2022-09-15T17:40:25.433Z,95452.47
2022-09-15T17:42:52.018Z,95458.88
2022-09-15T17:45:23.839Z,95399.44
2022-09-15T17:47:50.711Z,95319.19
2022-09-15T17:50:18.267Z,95427.47
2022-09-15T17:52:45.300Z,95408.03
2022-09-15T17:55:31.573Z,95482.16
2022-09-15T17:57:59.897Z,95434.41
2022-09-15T18:00:28.391Z,95478.47
2022-09-15T18:02:56.415Z,95503.72
2022-09-15T18:05:34.120Z,95425.47
2022-09-15T18:08:03.779Z,95512.41
2022-09-15T18:10:34.443Z,95428.44
2022-09-15T18:13:02.806Z,95441.91
2022-09-15T18:15:30.853Z,95479.53
2022-09-15T18:18:02.832Z,95469.72
2022-09-15T18:20:30.856Z,95487.63
2022-09-15T18:22:57.520Z,95498.84
2022-09-15T18:25:32.448Z,95485.47
2022-09-15T18:28:00.842Z,95541.16
2022-09-15T18:30:29.550Z,95492.47
2022-09-15T18:32:56.221Z,95534.16
2022-09-15T18:35:22.861Z,95506.75
2022-09-15T18:37:50.609Z,95297.09
2022-09-15T18:40:17.993Z,95517.56
2022-09-15T18:42:44.715Z,95438.88
2022-09-15T18:45:13.988Z,95450.69
2022-09-15T18:47:42.530Z,95535.66
2022-09-15T18:50:10.220Z,95508.22
2022-09-15T18:52:40.438Z,95368.59
2022-09-15T18:55:08.543Z,95509.50
2022-09-15T18:57:45.480Z,95538.13
2022-09-15T19:00:17.286Z,95443.34
2022-09-15T19:02:44.102Z,95484.03
2022-09-15T19:05:15.652Z,95465.41
2022-09-15T19:07:43.110Z,95505.31
2022-09-15T19:10:11.022Z,95498.31
2022-09-15T19:12:37.981Z,95521.97
2022-09-15T19:15:10.609Z,95443.19
2022-09-15T19:17:38.289Z,95446.00
2022-09-15T19:20:06.720Z,95501.50
2022-09-15T19:22:33.603Z,95488.94
2022-09-15T19:25:00.331Z,95517.78
2022-09-15T19:27:26.902Z,95507.75
2022-09-15T19:29:53.484Z,95440.59
2022-09-15T19:32:20.985Z,95442.00
2022-09-15T19:34:47.725Z,95413.94
2022-09-15T19:37:18.653Z,95350.25
2022-09-15T19:39:45.746Z,95493.34
2022-09-15T19:42:12.737Z,95463.84
2022-09-15T19:44:40.480Z,95492.13
2022-09-15T19:47:07.055Z,95455.25
2022-09-15T19:49:33.772Z,95506.38
2022-09-15T19:52:00.344Z,95472.91
2022-09-15T19:54:27.895Z,95475.88
2022-09-15T19:56:54.552Z,95466.47
2022-09-15T19:59:21.133Z,95465.25
2022-09-15T20:01:47.845Z,95476.50
2022-09-15T20:06:58.991Z,95318.97
2022-09-15T20:09:26.291Z,95499.34
2022-09-15T20:11:53.073Z,95281.13
2022-09-15T20:14:19.795Z,95479.09
2022-09-15T20:16:46.508Z,95471.69
2022-09-15T20:19:13.259Z,95533.25
2022-09-15T20:21:55.576Z,95403.34
2022-09-15T20:24:22.343Z,95370.06
2022-09-15T20:26:48.951Z,95326.19
2022-09-15T20:29:15.679Z,95529.44
2022-09-15T20:31:42.623Z,95501.78
2022-09-15T20:34:09.276Z,95504.19
2022-09-15T20:36:36.849Z,95447.25
2022-09-15T20:39:04.609Z,95518.81
2022-09-15T20:41:33.964Z,95558.13
2022-09-15T20:44:00.569Z,95513.19
2022-09-15T20:46:29.260Z,95529.25
2022-09-15T20:48:55.990Z,95515.63
2022-09-15T20:51:27.887Z,95559.53
2022-09-15T20:53:55.794Z,95514.22
2022-09-15T20:56:25.427Z,95529.47
2022-09-15T20:58:56.790Z,95566.97
2022-09-15T21:01:24.923Z,95363.81
2022-09-15T21:03:51.839Z,95503.59
2022-09-15T21:06:20.335Z,95551.50
2022-09-15T21:08:47.881Z,95494.97
2022-09-15T21:11:14.847Z,95563.94
2022-09-15T21:13:42.180Z,95594.28
2022-09-15T21:16:10.230Z,95549.72
2022-09-15T21:18:39.237Z,95505.56
2022-09-15T21:21:07.370Z,95630.16
2022-09-15T21:23:41.666Z,95600.25
2022-09-15T21:26:12.726Z,95556.72
2022-09-15T21:28:39.407Z,95611.50
2022-09-15T21:31:08.285Z,95487.47
2022-09-15T21:33:42.298Z,95583.22
2022-09-15T21:36:11.153Z,95556.50
2022-09-15T21:38:39.350Z,95607.66
2022-09-15T21:41:06.778Z,95655.06
2022-09-15T21:43:37.664Z,95630.75
2022-09-15T21:46:08.660Z,95669.09
2022-09-15T21:48:35.528Z,95662.06
2022-09-15T21:51:02.568Z,95529.78
2022-09-15T21:53:29.405Z,95618.50
2022-09-15T21:55:56.645Z,95651.63
2022-09-15T21:58:25.946Z,95595.41
2022-09-15T22:00:52.994Z,95652.41
2022-09-15T22:03:19.764Z,95477.56
2022-09-15T22:05:47.079Z,95602.06
2022-09-15T22:08:14.641Z,95635.97
2022-09-15T22:10:41.378Z,95583.16
2022-09-15T22:13:09.763Z,95492.81
2022-09-15T22:15:36.665Z,95513.03
2022-09-15T22:18:03.631Z,95613.66
2022-09-15T22:20:30.220Z,95651.38
2022-09-15T22:22:56.845Z,95639.97
2022-09-15T22:25:23.509Z,95590.97
2022-09-15T22:27:50.255Z,95651.16
2022-09-15T22:30:17.177Z,95427.56
2022-09-15T22:32:43.776Z,95585.09
2022-09-15T22:35:10.674Z,95658.78
2022-09-15T22:37:37.322Z,95397.81
2022-09-15T22:40:04.106Z,95384.56
2022-09-15T22:42:30.768Z,95649.13
2022-09-15T22:44:57.431Z,95618.59
2022-09-15T22:47:24.130Z,95630.03
2022-09-15T22:49:50.720Z,95645.69
2022-09-15T22:52:17.340Z,95645.81
2022-09-15T22:54:43.897Z,95562.59
2022-09-15T22:57:10.465Z,95581.84
2022-09-15T22:59:37.128Z,95438.63
2022-09-15T23:02:03.797Z,95618.81
2022-09-15T23:04:30.497Z,95632.00
2022-09-15T23:06:57.133Z,95633.25
2022-09-15T23:09:23.751Z,95366.19
2022-09-15T23:11:50.380Z,95652.34
2022-09-15T23:14:18.067Z,95625.84
2022-09-15T23:16:44.705Z,95611.91
2022-09-15T23:19:14.487Z,95655.94
2022-09-15T23:21:41.101Z,95560.09
2022-09-15T23:24:08.761Z,95666.34
2022-09-15T23:26:35.438Z,95675.22
2022-09-15T23:29:02.032Z,95719.22
2022-09-15T23:31:28.701Z,95665.69
2022-09-15T23:33:55.337Z,95687.03
2022-09-15T23:36:22.040Z,95654.84
2022-09-15T23:38:48.714Z,95647.78
2022-09-15T23:41:15.857Z,95605.94
2022-09-15T23:43:42.491Z,95657.84
2022-09-15T23:46:09.234Z,95395.63
2022-09-15T23:48:36.197Z,95442.53
2022-09-15T23:51:02.961Z,95565.94
2022-09-15T23:53:29.785Z,95614.72
2022-09-15T23:55:56.465Z,95637.19
2022-09-15T23:58:23.229Z,95703.88
